sensor_id;sensor_type;location;lat;lon;timestamp;temperature;humidity
29775;DHT22;16676;51.202;6.774;2023-05-14T00:02:28;22.20;57.00
29775;DHT22;16676;51.202;6.774;2023-05-14T00:06:30;22.20;57.80
29775;DHT22;16676;51.202;6.774;2023-05-14T00:10:32;22.10;56.20
29775;DHT22;16676;51.202;6.774;2023-05-14T00:14:34;22.10;56.60
29775;DHT22;16676;51.202;6.774;2023-05-14T00:18:37;22.00;56.80
29775;DHT22;16676;51.202;6.774;2023-05-14T00:22:40;22.00;57.00
29775;DHT22;16676;51.202;6.774;2023-05-14T00:26:41;22.00;57.00
29775;DHT22;16676;51.202;6.774;2023-05-14T00:30:43;22.00;57.50
29775;DHT22;16676;51.202;6.774;2023-05-14T00:34:47;22.00;57.70
29775;DHT22;16676;51.202;6.774;2023-05-14T00:38:49;22.10;58.00
29775;DHT22;16676;51.202;6.774;2023-05-14T00:42:50;22.10;57.90
29775;DHT22;16676;51.202;6.774;2023-05-14T00:46:53;22.10;58.00
29775;DHT22;16676;51.202;6.774;2023-05-14T00:50:57;22.10;58.20
29775;DHT22;16676;51.202;6.774;2023-05-14T00:54:59;22.10;58.00
29775;DHT22;16676;51.202;6.774;2023-05-14T00:59:03;22.10;58.60
29775;DHT22;16676;51.202;6.774;2023-05-14T01:03:06;22.10;58.70
29775;DHT22;16676;51.202;6.774;2023-05-14T01:07:15;22.10;58.10
29775;DHT22;16676;51.202;6.774;2023-05-14T01:11:27;22.00;56.60
29775;DHT22;16676;51.202;6.774;2023-05-14T01:15:34;21.90;56.80
29775;DHT22;16676;51.202;6.774;2023-05-14T01:19:41;21.90;57.60
29775;DHT22;16676;51.202;6.774;2023-05-14T01:23:44;22.00;58.40
29775;DHT22;16676;51.202;6.774;2023-05-14T01:27:53;22.00;58.20
29775;DHT22;16676;51.202;6.774;2023-05-14T01:31:59;22.00;57.70
29775;DHT22;16676;51.202;6.774;2023-05-14T01:36:02;22.00;57.00
29775;DHT22;16676;51.202;6.774;2023-05-14T01:40:07;21.90;57.40
29775;DHT22;16676;51.202;6.774;2023-05-14T01:44:09;21.90;58.10
29775;DHT22;16676;51.202;6.774;2023-05-14T01:48:11;21.90;57.90
29775;DHT22;16676;51.202;6.774;2023-05-14T01:52:13;21.90;57.80
29775;DHT22;16676;51.202;6.774;2023-05-14T01:56:17;21.90;57.40
29775;DHT22;16676;51.202;6.774;2023-05-14T02:00:20;21.90;58.90
29775;DHT22;16676;51.202;6.774;2023-05-14T02:04:22;21.90;57.60
29775;DHT22;16676;51.202;6.774;2023-05-14T02:08:24;21.90;58.10
29775;DHT22;16676;51.202;6.774;2023-05-14T02:12:27;21.90;57.80
29775;DHT22;16676;51.202;6.774;2023-05-14T02:16:29;21.90;57.70
29775;DHT22;16676;51.202;6.774;2023-05-14T02:20:31;21.90;58.20
29775;DHT22;16676;51.202;6.774;2023-05-14T02:24:33;21.80;56.80
29775;DHT22;16676;51.202;6.774;2023-05-14T02:28:36;21.90;57.80
29775;DHT22;16676;51.202;6.774;2023-05-14T02:32:38;21.90;58.30
29775;DHT22;16676;51.202;6.774;2023-05-14T02:36:40;21.90;58.20
29775;DHT22;16676;51.202;6.774;2023-05-14T02:40:42;21.80;58.00
29775;DHT22;16676;51.202;6.774;2023-05-14T02:44:46;21.80;58.40
29775;DHT22;16676;51.202;6.774;2023-05-14T02:48:48;21.80;58.30
29775;DHT22;16676;51.202;6.774;2023-05-14T02:52:49;21.80;58.40
29775;DHT22;16676;51.202;6.774;2023-05-14T02:56:51;21.80;58.90
29775;DHT22;16676;51.202;6.774;2023-05-14T03:00:55;21.80;56.90
29775;DHT22;16676;51.202;6.774;2023-05-14T03:04:57;21.80;57.20
29775;DHT22;16676;51.202;6.774;2023-05-14T03:08:58;21.70;57.20
29775;DHT22;16676;51.202;6.774;2023-05-14T03:13:00;21.70;57.70
29775;DHT22;16676;51.202;6.774;2023-05-14T03:17:04;21.70;58.90
29775;DHT22;16676;51.202;6.774;2023-05-14T03:21:06;21.80;57.80
29775;DHT22;16676;51.202;6.774;2023-05-14T03:25:09;21.70;57.30
29775;DHT22;16676;51.202;6.774;2023-05-14T03:29:11;21.70;57.30
29775;DHT22;16676;51.202;6.774;2023-05-14T03:33:14;21.70;58.40
29775;DHT22;16676;51.202;6.774;2023-05-14T03:37:16;21.70;57.90
29775;DHT22;16676;51.202;6.774;2023-05-14T03:41:18;21.70;57.30
29775;DHT22;16676;51.202;6.774;2023-05-14T03:45:21;21.70;57.40
29775;DHT22;16676;51.202;6.774;2023-05-14T03:49:24;21.70;57.80
29775;DHT22;16676;51.202;6.774;2023-05-14T03:53:26;21.60;56.80
29775;DHT22;16676;51.202;6.774;2023-05-14T03:57:28;21.60;56.80
29775;DHT22;16676;51.202;6.774;2023-05-14T04:01:30;21.50;57.10
29775;DHT22;16676;51.202;6.774;2023-05-14T04:05:33;21.60;57.50
29775;DHT22;16676;51.202;6.774;2023-05-14T04:09:35;21.60;57.10
29775;DHT22;16676;51.202;6.774;2023-05-14T04:13:37;21.60;57.40
29775;DHT22;16676;51.202;6.774;2023-05-14T04:17:39;21.60;57.40
29775;DHT22;16676;51.202;6.774;2023-05-14T04:21:42;21.60;57.80
29775;DHT22;16676;51.202;6.774;2023-05-14T04:25:44;21.60;57.80
29775;DHT22;16676;51.202;6.774;2023-05-14T04:29:46;21.60;57.20
29775;DHT22;16676;51.202;6.774;2023-05-14T04:33:48;21.50;56.30
29775;DHT22;16676;51.202;6.774;2023-05-14T04:37:52;21.30;56.50
29775;DHT22;16676;51.202;6.774;2023-05-14T04:41:54;21.20;56.70
29775;DHT22;16676;51.202;6.774;2023-05-14T04:45:55;21.10;56.80
29775;DHT22;16676;51.202;6.774;2023-05-14T04:49:57;21.00;56.30
29775;DHT22;16676;51.202;6.774;2023-05-14T04:54:00;20.90;56.80
29775;DHT22;16676;51.202;6.774;2023-05-14T04:58:02;20.90;56.80
29775;DHT22;16676;51.202;6.774;2023-05-14T05:02:04;21.00;56.60
29775;DHT22;16676;51.202;6.774;2023-05-14T05:06:07;21.10;57.00
29775;DHT22;16676;51.202;6.774;2023-05-14T05:10:10;21.20;56.50
29775;DHT22;16676;51.202;6.774;2023-05-14T05:14:12;21.00;56.20
29775;DHT22;16676;51.202;6.774;2023-05-14T05:18:14;20.90;57.00
29775;DHT22;16676;51.202;6.774;2023-05-14T05:22:16;20.90;56.70
29775;DHT22;16676;51.202;6.774;2023-05-14T05:26:20;20.90;56.70
29775;DHT22;16676;51.202;6.774;2023-05-14T05:30:22;20.80;57.10
29775;DHT22;16676;51.202;6.774;2023-05-14T05:34:24;20.70;57.20
29775;DHT22;16676;51.202;6.774;2023-05-14T05:38:26;20.60;57.40
29775;DHT22;16676;51.202;6.774;2023-05-14T05:42:29;20.60;57.40
29775;DHT22;16676;51.202;6.774;2023-05-14T05:46:31;20.50;58.30
29775;DHT22;16676;51.202;6.774;2023-05-14T05:50:33;20.50;57.90
29775;DHT22;16676;51.202;6.774;2023-05-14T05:54:35;20.40;57.90
29775;DHT22;16676;51.202;6.774;2023-05-14T05:58:40;20.40;58.80
29775;DHT22;16676;51.202;6.774;2023-05-14T06:02:43;20.20;58.70
29775;DHT22;16676;51.202;6.774;2023-05-14T06:06:44;20.10;59.20
29775;DHT22;16676;51.202;6.774;2023-05-14T06:10:46;20.10;59.10
29775;DHT22;16676;51.202;6.774;2023-05-14T06:14:50;20.00;59.60
29775;DHT22;16676;51.202;6.774;2023-05-14T06:18:52;20.00;59.90
29775;DHT22;16676;51.202;6.774;2023-05-14T06:22:55;19.90;59.90
29775;DHT22;16676;51.202;6.774;2023-05-14T06:26:56;19.90;60.30
29775;DHT22;16676;51.202;6.774;2023-05-14T06:31:00;19.90;61.00
29775;DHT22;16676;51.202;6.774;2023-05-14T06:35:02;19.90;60.50
29775;DHT22;16676;51.202;6.774;2023-05-14T06:39:04;19.80;60.80
29775;DHT22;16676;51.202;6.774;2023-05-14T06:43:06;19.80;60.70
29775;DHT22;16676;51.202;6.774;2023-05-14T06:47:09;19.90;61.20
29775;DHT22;16676;51.202;6.774;2023-05-14T06:51:11;20.00;61.00
29775;DHT22;16676;51.202;6.774;2023-05-14T06:55:13;19.90;61.30
29775;DHT22;16676;51.202;6.774;2023-05-14T06:59:15;19.90;61.60
29775;DHT22;16676;51.202;6.774;2023-05-14T07:03:18;20.00;61.20
29775;DHT22;16676;51.202;6.774;2023-05-14T07:07:21;20.00;61.40
29775;DHT22;16676;51.202;6.774;2023-05-14T07:11:23;20.00;61.70
29775;DHT22;16676;51.202;6.774;2023-05-14T07:15:25;20.00;62.10
29775;DHT22;16676;51.202;6.774;2023-05-14T07:19:29;20.00;62.00
29775;DHT22;16676;51.202;6.774;2023-05-14T07:23:30;20.00;61.80
29775;DHT22;16676;51.202;6.774;2023-05-14T07:27:33;20.10;62.20
29775;DHT22;16676;51.202;6.774;2023-05-14T07:31:35;20.10;61.50
29775;DHT22;16676;51.202;6.774;2023-05-14T07:35:38;20.20;62.10
29775;DHT22;16676;51.202;6.774;2023-05-14T07:39:40;20.10;61.90
29775;DHT22;16676;51.202;6.774;2023-05-14T07:43:42;20.30;62.30
29775;DHT22;16676;51.202;6.774;2023-05-14T07:47:45;20.30;61.40
29775;DHT22;16676;51.202;6.774;2023-05-14T07:51:52;20.30;61.10
29775;DHT22;16676;51.202;6.774;2023-05-14T07:55:54;20.40;61.40
29775;DHT22;16676;51.202;6.774;2023-05-14T07:59:56;20.30;60.80
29775;DHT22;16676;51.202;6.774;2023-05-14T08:03:58;20.30;61.40
29775;DHT22;16676;51.202;6.774;2023-05-14T08:08:01;20.40;61.50
29775;DHT22;16676;51.202;6.774;2023-05-14T08:12:04;20.40;62.30
29775;DHT22;16676;51.202;6.774;2023-05-14T08:16:07;20.50;62.20
29775;DHT22;16676;51.202;6.774;2023-05-14T08:20:09;20.60;61.80
29775;DHT22;16676;51.202;6.774;2023-05-14T08:24:13;20.60;60.70
29775;DHT22;16676;51.202;6.774;2023-05-14T08:28:15;20.70;60.60
29775;DHT22;16676;51.202;6.774;2023-05-14T08:32:17;20.60;60.80
29775;DHT22;16676;51.202;6.774;2023-05-14T08:36:19;20.70;60.90
29775;DHT22;16676;51.202;6.774;2023-05-14T08:40:22;20.70;59.80
29775;DHT22;16676;51.202;6.774;2023-05-14T08:44:30;20.80;60.50
29775;DHT22;16676;51.202;6.774;2023-05-14T08:48:33;20.90;59.90
29775;DHT22;16676;51.202;6.774;2023-05-14T08:52:36;21.00;59.20
29775;DHT22;16676;51.202;6.774;2023-05-14T08:56:40;21.00;58.70
29775;DHT22;16676;51.202;6.774;2023-05-14T09:00:42;21.00;58.70
29775;DHT22;16676;51.202;6.774;2023-05-14T09:04:45;21.10;58.50
29775;DHT22;16676;51.202;6.774;2023-05-14T09:08:47;21.10;58.20
29775;DHT22;16676;51.202;6.774;2023-05-14T09:12:51;21.10;58.10
29775;DHT22;16676;51.202;6.774;2023-05-14T09:16:53;21.20;57.70
29775;DHT22;16676;51.202;6.774;2023-05-14T09:20:55;21.10;57.00
29775;DHT22;16676;51.202;6.774;2023-05-14T09:25:02;21.10;56.60
29775;DHT22;16676;51.202;6.774;2023-05-14T09:29:06;21.10;56.60
29775;DHT22;16676;51.202;6.774;2023-05-14T09:33:08;21.20;56.40
29775;DHT22;16676;51.202;6.774;2023-05-14T09:37:10;21.20;55.60
29775;DHT22;16676;51.202;6.774;2023-05-14T09:41:12;21.20;55.60
29775;DHT22;16676;51.202;6.774;2023-05-14T09:45:15;21.20;55.10
29775;DHT22;16676;51.202;6.774;2023-05-14T09:49:17;21.30;54.50
29775;DHT22;16676;51.202;6.774;2023-05-14T09:53:20;21.30;54.50
29775;DHT22;16676;51.202;6.774;2023-05-14T09:57:22;21.30;54.50
29775;DHT22;16676;51.202;6.774;2023-05-14T10:01:27;21.40;54.00
29775;DHT22;16676;51.202;6.774;2023-05-14T10:05:29;21.40;53.50
29775;DHT22;16676;51.202;6.774;2023-05-14T10:09:32;21.40;52.90
29775;DHT22;16676;51.202;6.774;2023-05-14T10:13:38;21.40;52.90
29775;DHT22;16676;51.202;6.774;2023-05-14T10:17:44;21.30;51.50
29775;DHT22;16676;51.202;6.774;2023-05-14T10:21:54;21.30;51.70
29775;DHT22;16676;51.202;6.774;2023-05-14T10:25:57;21.30;50.50
29775;DHT22;16676;51.202;6.774;2023-05-14T10:30:00;21.30;53.70
29775;DHT22;16676;51.202;6.774;2023-05-14T10:34:31;21.30;55.20
29775;DHT22;16676;51.202;6.774;2023-05-14T10:38:34;21.30;55.30
29775;DHT22;16676;51.202;6.774;2023-05-14T10:42:37;21.30;55.30
29775;DHT22;16676;51.202;6.774;2023-05-14T10:46:40;21.10;51.50
29775;DHT22;16676;51.202;6.774;2023-05-14T10:50:44;21.20;52.70
29775;DHT22;16676;51.202;6.774;2023-05-14T10:54:49;21.30;54.10
29775;DHT22;16676;51.202;6.774;2023-05-14T10:58:57;21.20;52.30
29775;DHT22;16676;51.202;6.774;2023-05-14T11:03:02;21.20;52.00
29775;DHT22;16676;51.202;6.774;2023-05-14T11:07:06;21.30;55.60
29775;DHT22;16676;51.202;6.774;2023-05-14T11:11:08;21.30;53.70
29775;DHT22;16676;51.202;6.774;2023-05-14T11:15:13;21.20;52.00
29775;DHT22;16676;51.202;6.774;2023-05-14T11:19:20;21.20;54.90
29775;DHT22;16676;51.202;6.774;2023-05-14T11:23:23;21.20;53.90
29775;DHT22;16676;51.202;6.774;2023-05-14T11:27:26;21.30;53.10
29775;DHT22;16676;51.202;6.774;2023-05-14T11:31:28;21.30;51.70
29775;DHT22;16676;51.202;6.774;2023-05-14T11:35:30;21.20;50.20
29775;DHT22;16676;51.202;6.774;2023-05-14T11:39:34;21.10;46.90
29775;DHT22;16676;51.202;6.774;2023-05-14T11:43:37;21.10;44.50
29775;DHT22;16676;51.202;6.774;2023-05-14T11:47:39;21.20;44.60
29775;DHT22;16676;51.202;6.774;2023-05-14T11:51:41;21.40;44.70
29775;DHT22;16676;51.202;6.774;2023-05-14T11:55:45;21.40;42.70
29775;DHT22;16676;51.202;6.774;2023-05-14T11:59:48;21.40;42.80
29775;DHT22;16676;51.202;6.774;2023-05-14T12:03:55;21.50;44.20
29775;DHT22;16676;51.202;6.774;2023-05-14T12:07:57;21.50;44.90
29775;DHT22;16676;51.202;6.774;2023-05-14T12:12:07;21.50;40.30
29775;DHT22;16676;51.202;6.774;2023-05-14T12:16:09;21.50;37.60
29775;DHT22;16676;51.202;6.774;2023-05-14T12:20:11;21.60;38.20
29775;DHT22;16676;51.202;6.774;2023-05-14T12:24:16;21.60;37.10
29775;DHT22;16676;51.202;6.774;2023-05-14T12:28:21;21.60;40.50
29775;DHT22;16676;51.202;6.774;2023-05-14T12:32:24;21.60;36.70
29775;DHT22;16676;51.202;6.774;2023-05-14T12:36:26;21.70;41.10
29775;DHT22;16676;51.202;6.774;2023-05-14T12:40:29;21.60;39.10
29775;DHT22;16676;51.202;6.774;2023-05-14T12:44:32;21.70;43.30
29775;DHT22;16676;51.202;6.774;2023-05-14T12:48:34;21.70;39.60
29775;DHT22;16676;51.202;6.774;2023-05-14T12:52:36;21.70;39.70
29775;DHT22;16676;51.202;6.774;2023-05-14T12:56:38;21.70;39.30
29775;DHT22;16676;51.202;6.774;2023-05-14T13:00:41;21.60;40.20
29775;DHT22;16676;51.202;6.774;2023-05-14T13:04:44;21.70;38.60
29775;DHT22;16676;51.202;6.774;2023-05-14T13:08:45;21.70;43.40
29775;DHT22;16676;51.202;6.774;2023-05-14T13:12:47;21.70;40.50
29775;DHT22;16676;51.202;6.774;2023-05-14T13:16:51;21.70;40.80
29775;DHT22;16676;51.202;6.774;2023-05-14T13:20:53;21.80;43.90
29775;DHT22;16676;51.202;6.774;2023-05-14T13:24:55;21.80;40.50
29775;DHT22;16676;51.202;6.774;2023-05-14T13:28:58;21.70;38.80
29775;DHT22;16676;51.202;6.774;2023-05-14T13:33:01;21.80;42.60
29775;DHT22;16676;51.202;6.774;2023-05-14T13:37:03;21.70;39.90
29775;DHT22;16676;51.202;6.774;2023-05-14T13:41:05;21.80;40.50
29775;DHT22;16676;51.202;6.774;2023-05-14T13:45:08;21.80;38.30
29775;DHT22;16676;51.202;6.774;2023-05-14T13:49:12;21.90;43.60
29775;DHT22;16676;51.202;6.774;2023-05-14T13:53:14;21.90;41.50
29775;DHT22;16676;51.202;6.774;2023-05-14T13:57:16;21.90;43.40
29775;DHT22;16676;51.202;6.774;2023-05-14T14:01:18;21.90;41.80
29775;DHT22;16676;51.202;6.774;2023-05-14T14:05:21;21.90;40.40
29775;DHT22;16676;51.202;6.774;2023-05-14T14:09:27;21.90;43.30
29775;DHT22;16676;51.202;6.774;2023-05-14T14:13:35;21.90;42.70
29775;DHT22;16676;51.202;6.774;2023-05-14T14:17:37;21.90;41.00
29775;DHT22;16676;51.202;6.774;2023-05-14T14:21:42;21.90;41.20
29775;DHT22;16676;51.202;6.774;2023-05-14T14:25:44;21.90;42.10
29775;DHT22;16676;51.202;6.774;2023-05-14T14:29:46;21.90;40.30
29775;DHT22;16676;51.202;6.774;2023-05-14T14:33:48;21.80;38.60
29775;DHT22;16676;51.202;6.774;2023-05-14T14:37:51;21.90;38.50
29775;DHT22;16676;51.202;6.774;2023-05-14T14:41:55;21.90;37.10
29775;DHT22;16676;51.202;6.774;2023-05-14T14:45:57;21.90;39.00
29775;DHT22;16676;51.202;6.774;2023-05-14T14:49:59;22.00;40.30
29775;DHT22;16676;51.202;6.774;2023-05-14T14:54:02;22.00;37.20
29775;DHT22;16676;51.202;6.774;2023-05-14T14:58:04;22.00;38.70
29775;DHT22;16676;51.202;6.774;2023-05-14T15:02:07;22.00;37.30
29775;DHT22;16676;51.202;6.774;2023-05-14T15:06:09;22.00;37.90
29775;DHT22;16676;51.202;6.774;2023-05-14T15:10:13;22.00;37.60
29775;DHT22;16676;51.202;6.774;2023-05-14T15:14:15;22.00;38.10
29775;DHT22;16676;51.202;6.774;2023-05-14T15:18:17;22.10;39.40
29775;DHT22;16676;51.202;6.774;2023-05-14T15:22:19;22.00;38.60
29775;DHT22;16676;51.202;6.774;2023-05-14T15:26:23;22.00;39.00
29775;DHT22;16676;51.202;6.774;2023-05-14T15:30:26;22.00;40.30
29775;DHT22;16676;51.202;6.774;2023-05-14T15:34:28;22.10;39.20
29775;DHT22;16676;51.202;6.774;2023-05-14T15:38:30;22.00;39.00
29775;DHT22;16676;51.202;6.774;2023-05-14T15:42:33;22.00;40.60
29775;DHT22;16676;51.202;6.774;2023-05-14T15:46:36;22.10;42.00
29775;DHT22;16676;51.202;6.774;2023-05-14T15:50:38;22.10;42.20
29775;DHT22;16676;51.202;6.774;2023-05-14T15:54:40;22.10;44.40
29775;DHT22;16676;51.202;6.774;2023-05-14T15:58:43;22.20;44.10
29775;DHT22;16676;51.202;6.774;2023-05-14T16:02:45;22.10;45.30
29775;DHT22;16676;51.202;6.774;2023-05-14T16:06:47;22.10;43.80
29775;DHT22;16676;51.202;6.774;2023-05-14T16:10:49;22.10;45.80
29775;DHT22;16676;51.202;6.774;2023-05-14T16:14:52;22.10;44.70
29775;DHT22;16676;51.202;6.774;2023-05-14T16:18:56;22.20;45.80
29775;DHT22;16676;51.202;6.774;2023-05-14T16:22:58;22.20;47.50
29775;DHT22;16676;51.202;6.774;2023-05-14T16:27:00;22.20;46.20
29775;DHT22;16676;51.202;6.774;2023-05-14T16:31:03;22.20;46.70
29775;DHT22;16676;51.202;6.774;2023-05-14T16:35:06;22.10;46.70
29775;DHT22;16676;51.202;6.774;2023-05-14T16:39:08;22.30;44.40
29775;DHT22;16676;51.202;6.774;2023-05-14T16:43:11;22.30;44.20
29775;DHT22;16676;51.202;6.774;2023-05-14T16:47:14;22.40;44.80
29775;DHT22;16676;51.202;6.774;2023-05-14T16:51:16;22.30;44.70
29775;DHT22;16676;51.202;6.774;2023-05-14T16:55:18;22.40;45.00
29775;DHT22;16676;51.202;6.774;2023-05-14T16:59:20;22.40;45.20
29775;DHT22;16676;51.202;6.774;2023-05-14T17:03:23;22.30;46.10
29775;DHT22;16676;51.202;6.774;2023-05-14T17:07:25;22.30;46.10
29775;DHT22;16676;51.202;6.774;2023-05-14T17:11:27;22.30;46.50
29775;DHT22;16676;51.202;6.774;2023-05-14T17:15:29;22.30;46.60
29775;DHT22;16676;51.202;6.774;2023-05-14T17:19:32;22.30;45.70
29775;DHT22;16676;51.202;6.774;2023-05-14T17:23:34;22.30;46.00
29775;DHT22;16676;51.202;6.774;2023-05-14T17:27:36;22.30;45.70
29775;DHT22;16676;51.202;6.774;2023-05-14T17:31:38;22.30;45.10
29775;DHT22;16676;51.202;6.774;2023-05-14T17:35:42;22.20;45.40
29775;DHT22;16676;51.202;6.774;2023-05-14T17:39:45;22.20;46.00
29775;DHT22;16676;51.202;6.774;2023-05-14T17:43:47;22.30;45.30
29775;DHT22;16676;51.202;6.774;2023-05-14T17:47:52;22.20;45.30
29775;DHT22;16676;51.202;6.774;2023-05-14T17:51:55;22.20;45.60
29775;DHT22;16676;51.202;6.774;2023-05-14T17:55:57;22.20;45.00
29775;DHT22;16676;51.202;6.774;2023-05-14T17:59:59;22.20;45.00
29775;DHT22;16676;51.202;6.774;2023-05-14T18:04:01;22.20;45.00
29775;DHT22;16676;51.202;6.774;2023-05-14T18:08:04;22.20;46.30
29775;DHT22;16676;51.202;6.774;2023-05-14T18:12:07;22.20;45.80
29775;DHT22;16676;51.202;6.774;2023-05-14T18:16:09;22.20;46.40
29775;DHT22;16676;51.202;6.774;2023-05-14T18:20:11;22.30;46.90
29775;DHT22;16676;51.202;6.774;2023-05-14T18:24:15;22.30;46.60
29775;DHT22;16676;51.202;6.774;2023-05-14T18:28:17;22.20;46.80
29775;DHT22;16676;51.202;6.774;2023-05-14T18:32:21;22.20;46.90
29775;DHT22;16676;51.202;6.774;2023-05-14T18:36:23;22.20;47.50
29775;DHT22;16676;51.202;6.774;2023-05-14T18:40:27;22.20;46.80
29775;DHT22;16676;51.202;6.774;2023-05-14T18:44:29;22.20;45.70
29775;DHT22;16676;51.202;6.774;2023-05-14T18:48:31;22.20;45.40
29775;DHT22;16676;51.202;6.774;2023-05-14T18:52:33;22.20;44.50
29775;DHT22;16676;51.202;6.774;2023-05-14T18:56:37;22.20;46.20
29775;DHT22;16676;51.202;6.774;2023-05-14T19:00:39;22.20;46.60
29775;DHT22;16676;51.202;6.774;2023-05-14T19:04:41;22.20;45.60
29775;DHT22;16676;51.202;6.774;2023-05-14T19:08:44;22.20;47.30
29775;DHT22;16676;51.202;6.774;2023-05-14T19:12:48;22.20;47.20
29775;DHT22;16676;51.202;6.774;2023-05-14T19:16:50;22.20;47.30
29775;DHT22;16676;51.202;6.774;2023-05-14T19:20:52;22.20;47.90
29775;DHT22;16676;51.202;6.774;2023-05-14T19:24:56;22.30;49.40
29775;DHT22;16676;51.202;6.774;2023-05-14T19:28:59;22.30;48.70
29775;DHT22;16676;51.202;6.774;2023-05-14T19:33:01;22.30;48.80
29775;DHT22;16676;51.202;6.774;2023-05-14T19:37:04;22.30;49.10
29775;DHT22;16676;51.202;6.774;2023-05-14T19:41:06;22.30;49.40
29775;DHT22;16676;51.202;6.774;2023-05-14T19:45:10;22.30;50.20
29775;DHT22;16676;51.202;6.774;2023-05-14T19:49:12;22.30;49.30
29775;DHT22;16676;51.202;6.774;2023-05-14T19:53:14;22.30;49.60
29775;DHT22;16676;51.202;6.774;2023-05-14T19:57:16;22.20;49.70
29775;DHT22;16676;51.202;6.774;2023-05-14T20:01:19;22.30;49.60
29775;DHT22;16676;51.202;6.774;2023-05-14T20:05:21;22.30;50.00
29775;DHT22;16676;51.202;6.774;2023-05-14T20:09:23;22.30;49.80
29775;DHT22;16676;51.202;6.774;2023-05-14T20:13:25;22.30;50.10
29775;DHT22;16676;51.202;6.774;2023-05-14T20:17:28;22.30;48.70
29775;DHT22;16676;51.202;6.774;2023-05-14T20:21:30;22.30;48.50
29775;DHT22;16676;51.202;6.774;2023-05-14T20:25:33;22.20;48.90
29775;DHT22;16676;51.202;6.774;2023-05-14T20:29:35;22.20;48.70
29775;DHT22;16676;51.202;6.774;2023-05-14T20:33:38;22.20;48.70
29775;DHT22;16676;51.202;6.774;2023-05-14T20:37:40;22.20;50.80
29775;DHT22;16676;51.202;6.774;2023-05-14T20:41:42;22.20;50.90
29775;DHT22;16676;51.202;6.774;2023-05-14T20:45:45;22.20;50.70
29775;DHT22;16676;51.202;6.774;2023-05-14T20:49:48;22.20;49.60
29775;DHT22;16676;51.202;6.774;2023-05-14T20:53:50;22.20;49.80
29775;DHT22;16676;51.202;6.774;2023-05-14T20:57:52;22.20;50.00
29775;DHT22;16676;51.202;6.774;2023-05-14T21:01:54;22.20;50.30
29775;DHT22;16676;51.202;6.774;2023-05-14T21:05:58;22.20;50.50
29775;DHT22;16676;51.202;6.774;2023-05-14T21:10:00;22.20;50.20
29775;DHT22;16676;51.202;6.774;2023-05-14T21:14:02;22.20;50.70
29775;DHT22;16676;51.202;6.774;2023-05-14T21:18:04;22.20;50.50
29775;DHT22;16676;51.202;6.774;2023-05-14T21:22:07;22.10;50.40
29775;DHT22;16676;51.202;6.774;2023-05-14T21:26:09;22.10;50.30
29775;DHT22;16676;51.202;6.774;2023-05-14T21:30:12;22.10;50.30
29775;DHT22;16676;51.202;6.774;2023-05-14T21:34:14;22.10;50.10
29775;DHT22;16676;51.202;6.774;2023-05-14T21:38:17;22.10;49.60
29775;DHT22;16676;51.202;6.774;2023-05-14T21:42:19;22.10;49.60
29775;DHT22;16676;51.202;6.774;2023-05-14T21:46:21;22.00;50.10
29775;DHT22;16676;51.202;6.774;2023-05-14T21:50:23;22.00;50.80
29775;DHT22;16676;51.202;6.774;2023-05-14T21:54:27;22.00;51.40
29775;DHT22;16676;51.202;6.774;2023-05-14T21:58:29;22.00;51.30
29775;DHT22;16676;51.202;6.774;2023-05-14T22:02:31;22.00;51.50
29775;DHT22;16676;51.202;6.774;2023-05-14T22:06:33;21.90;51.30
29775;DHT22;16676;51.202;6.774;2023-05-14T22:10:36;21.90;52.00
29775;DHT22;16676;51.202;6.774;2023-05-14T22:14:38;21.90;51.90
29775;DHT22;16676;51.202;6.774;2023-05-14T22:18:40;21.90;52.50
29775;DHT22;16676;51.202;6.774;2023-05-14T22:22:42;21.80;51.90
29775;DHT22;16676;51.202;6.774;2023-05-14T22:26:45;21.80;52.40
29775;DHT22;16676;51.202;6.774;2023-05-14T22:30:47;21.80;52.60
29775;DHT22;16676;51.202;6.774;2023-05-14T22:34:49;21.80;53.00
29775;DHT22;16676;51.202;6.774;2023-05-14T22:38:51;21.70;53.20
29775;DHT22;16676;51.202;6.774;2023-05-14T22:42:54;21.80;53.50
29775;DHT22;16676;51.202;6.774;2023-05-14T22:46:56;21.80;53.90
29775;DHT22;16676;51.202;6.774;2023-05-14T22:50:59;21.70;54.10
29775;DHT22;16676;51.202;6.774;2023-05-14T22:55:01;21.70;54.30
29775;DHT22;16676;51.202;6.774;2023-05-14T22:59:04;21.80;54.90
29775;DHT22;16676;51.202;6.774;2023-05-14T23:03:06;21.80;54.70
29775;DHT22;16676;51.202;6.774;2023-05-14T23:07:08;21.80;54.50
29775;DHT22;16676;51.202;6.774;2023-05-14T23:11:10;21.80;55.90
29775;DHT22;16676;51.202;6.774;2023-05-14T23:15:13;21.80;55.70
29775;DHT22;16676;51.202;6.774;2023-05-14T23:19:15;21.80;55.90
29775;DHT22;16676;51.202;6.774;2023-05-14T23:23:17;21.70;56.30
29775;DHT22;16676;51.202;6.774;2023-05-14T23:27:19;21.60;56.90
29775;DHT22;16676;51.202;6.774;2023-05-14T23:31:23;21.60;57.40
29775;DHT22;16676;51.202;6.774;2023-05-14T23:35:25;21.50;58.10
29775;DHT22;16676;51.202;6.774;2023-05-14T23:39:27;21.50;59.30
29775;DHT22;16676;51.202;6.774;2023-05-14T23:43:28;21.50;59.60
29775;DHT22;16676;51.202;6.774;2023-05-14T23:47:33;21.40;59.70
29775;DHT22;16676;51.202;6.774;2023-05-14T23:51:35;21.40;60.50
29775;DHT22;16676;51.202;6.774;2023-05-14T23:55:37;21.50;60.50
29775;DHT22;16676;51.202;6.774;2023-05-14T23:59:39;21.40;61.10
